Time;durP1;ratioP1;P1;durP2;ratioP2;P2;SDS_P1;SDS_P2;PMS_P1;PMS_P2;Temp;Humidity;BMP_temperature;BMP_pressure;BME280_temperature;BME280_humidity;BME280_pressure;Samples;Min_cycle;Max_cycle;Signal;HPM_P1;HPM_P2
2022/03/05 00:00:30;;;;;;;21.80;8.33;;;;;;;11.85;35.24;102136.38;5113723;27;20015;-75
2022/03/05 00:02:56;;;;;;;21.73;7.83;;;;;;;12.70;33.68;102134.97;5114215;27;20494;-74
2022/03/05 00:05:22;;;;;;;29.03;9.33;;;;;;;12.55;33.79;102142.81;5114106;27;20016;-74
2022/03/05 00:07:47;;;;;;;24.97;9.93;;;;;;;12.67;33.69;102131.47;5113182;27;20075;-75
2022/03/05 00:10:13;;;;;;;24.90;8.53;;;;;;;12.36;34.33;102134.91;5112850;27;20027;-75
2022/03/05 00:12:38;;;;;;;20.67;8.07;;;;;;;11.97;34.86;102146.94;5114441;27;20148;-75
2022/03/05 00:15:04;;;;;;;21.47;9.27;;;;;;;12.77;33.61;102135.00;5112995;27;20110;-74
2022/03/05 00:17:30;;;;;;;24.57;8.13;;;;;;;12.48;34.18;102135.81;5114525;27;20485;-75
2022/03/05 00:19:55;;;;;;;24.43;8.63;;;;;;;12.27;34.77;102129.63;5132193;27;20034;-74
2022/03/05 00:22:21;;;;;;;26.30;8.87;;;;;;;11.84;35.46;102134.63;5112137;27;20047;-74
2022/03/05 00:24:46;;;;;;;26.23;9.20;;;;;;;12.18;34.99;102134.81;5113961;27;20119;-74
2022/03/05 00:27:12;;;;;;;25.13;9.37;;;;;;;11.31;36.10;102136.03;5112793;27;20081;-75
2022/03/05 00:29:37;;;;;;;24.53;7.67;;;;;;;11.76;35.45;102139.81;5113580;27;20497;-75
2022/03/05 00:32:06;;;;;;;23.63;9.80;;;;;;;11.63;35.90;102141.47;5131906;27;20148;-75
2022/03/05 00:34:31;;;;;;;27.07;9.67;;;;;;;11.76;36.03;102146.78;5123604;27;20435;-75
2022/03/05 00:36:57;;;;;;;24.27;8.83;;;;;;;11.88;35.88;102153.00;5112671;27;20019;-74
2022/03/05 00:39:22;;;;;;;23.90;9.00;;;;;;;11.76;36.15;102138.94;5094941;27;20023;-74
2022/03/05 00:41:47;;;;;;;25.57;8.07;;;;;;;11.76;35.71;102144.16;5113094;27;20067;-74
2022/03/05 00:44:13;;;;;;;30.43;9.53;;;;;;;12.03;35.27;102144.38;5106174;27;20091;-74
2022/03/05 00:46:40;;;;;;;26.27;9.23;;;;;;;11.90;35.89;102153.00;5108800;27;20466;-75
2022/03/05 00:49:06;;;;;;;23.53;8.57;;;;;;;12.15;35.08;102150.53;5112153;27;20031;-74
2022/03/05 00:51:31;;;;;;;27.23;9.77;;;;;;;11.67;36.53;102148.50;5113862;27;20087;-74
2022/03/05 00:53:57;;;;;;;23.67;8.23;;;;;;;12.19;35.50;102160.16;5111387;27;20152;-74
2022/03/05 00:56:22;;;;;;;29.33;9.77;;;;;;;12.22;35.19;102162.78;5112047;27;20066;-74
2022/03/05 00:58:47;;;;;;;27.50;10.33;;;;;;;12.11;35.11;102154.00;5113512;27;20020;-74
2022/03/05 01:01:12;;;;;;;27.07;8.57;;;;;;;12.48;34.50;102154.16;5112227;27;20023;-75
2022/03/05 01:03:38;;;;;;;28.23;8.97;;;;;;;11.84;35.77;102153.84;5103012;27;20027;-74
2022/03/05 01:06:04;;;;;;;24.43;8.60;;;;;;;11.48;36.42;102151.84;5111763;27;20026;-74
2022/03/05 01:08:30;;;;;;;27.93;9.23;;;;;;;11.33;36.85;102152.63;5113113;27;20027;-75
2022/03/05 01:10:55;;;;;;;23.73;8.53;;;;;;;11.61;36.46;102158.94;5112763;27;20390;-74
2022/03/05 01:13:21;;;;;;;23.43;8.93;;;;;;;11.18;36.93;102159.50;5112010;27;20030;-74
2022/03/05 01:15:46;;;;;;;29.63;10.13;;;;;;;11.56;36.94;102160.66;5113339;27;20019;-74
2022/03/05 01:18:11;;;;;;;23.83;8.53;;;;;;;11.81;35.78;102163.41;5110418;27;20585;-74
2022/03/05 01:20:37;;;;;;;30.03;9.93;;;;;;;12.09;35.12;102166.22;5112135;27;20033;-75
2022/03/05 01:23:02;;;;;;;34.07;10.27;;;;;;;11.92;35.84;102164.34;5112755;27;20050;-74
2022/03/05 01:25:28;;;;;;;24.63;9.43;;;;;;;11.96;35.59;102166.16;5111503;27;20026;-75
2022/03/05 01:27:53;;;;;;;24.70;9.43;;;;;;;11.95;35.66;102164.44;5112104;27;20447;-74
2022/03/05 01:30:18;;;;;;;29.93;10.40;;;;;;;11.64;36.07;102158.94;5104991;27;20033;-74
2022/03/05 01:32:44;;;;;;;35.13;10.17;;;;;;;11.66;36.23;102161.56;5111439;27;20128;-75
2022/03/05 01:35:10;;;;;;;32.20;8.80;;;;;;;11.65;35.59;102165.06;5111826;27;20023;-74
2022/03/05 01:37:35;;;;;;;26.53;9.23;;;;;;;11.53;36.14;102161.50;5112438;27;20031;-75
2022/03/05 01:40:01;;;;;;;31.40;9.77;;;;;;;11.38;36.36;102161.38;5112057;27;20478;-74
2022/03/05 01:42:26;;;;;;;32.47;10.50;;;;;;;11.43;36.51;102164.94;5111807;27;20027;-75
2022/03/05 01:44:52;;;;;;;34.90;9.83;;;;;;;11.73;35.64;102162.50;5130001;27;20019;-74
2022/03/05 01:47:19;;;;;;;26.97;9.73;;;;;;;11.66;36.07;102157.25;5111255;27;20023;-74
2022/03/05 01:49:44;;;;;;;30.30;9.60;;;;;;;10.54;37.71;102164.94;5112922;28;20019;-74
2022/03/05 01:52:10;;;;;;;29.43;9.93;;;;;;;11.36;37.02;102169.22;5110477;28;20023;-75
2022/03/05 01:54:38;;;;;;;25.20;8.70;;;;;;;11.62;36.01;102159.81;5102918;28;20524;-75
2022/03/05 01:57:03;;;;;;;28.40;8.57;;;;;;;11.56;36.34;102163.25;5130238;28;20478;-75
2022/03/05 01:59:29;;;;;;;27.33;9.40;;;;;;;11.36;36.46;102164.00;5129884;28;20072;-75
2022/03/05 02:01:55;;;;;;;26.87;8.90;;;;;;;11.08;36.51;102159.38;5111949;28;20023;-75
2022/03/05 02:04:20;;;;;;;31.13;10.57;;;;;;;11.42;36.41;102157.94;5112173;28;20417;-74
2022/03/05 02:06:45;;;;;;;34.10;10.07;;;;;;;11.59;36.14;102150.19;5112264;28;20110;-75
2022/03/05 02:09:11;;;;;;;33.43;9.53;;;;;;;11.80;35.40;102159.03;5130105;28;20102;-75
2022/03/05 02:11:36;;;;;;;29.30;9.13;;;;;;;12.03;35.43;102167.06;5112442;28;20046;-75
2022/03/05 02:14:02;;;;;;;29.53;9.83;;;;;;;11.31;36.33;102156.97;5111378;28;20110;-75
2022/03/05 02:16:28;;;;;;;32.60;10.63;;;;;;;11.05;37.32;102160.22;5111993;28;20428;-75
2022/03/05 02:18:57;;;;;;;30.90;9.70;;;;;;;11.51;35.93;102157.09;5111823;28;20026;-74
2022/03/05 02:21:25;;;;;;;31.33;9.30;;;;;;;11.29;37.27;102156.97;5109920;28;20442;-75
2022/03/05 02:23:50;;;;;;;24.07;9.57;;;;;;;11.19;37.18;102155.13;5112339;28;20068;-75
2022/03/05 02:26:16;;;;;;;30.57;10.43;;;;;;;10.99;37.03;102153.22;5129346;28;20448;-75
2022/03/05 02:28:41;;;;;;;26.80;8.90;;;;;;;10.95;37.21;102156.66;5111742;28;20027;-75
2022/03/05 02:31:07;;;;;;;29.10;9.80;;;;;;;10.68;37.84;102158.13;5110021;27;20046;-75
2022/03/05 02:33:33;;;;;;;30.27;8.97;;;;;;;10.93;37.53;102158.38;5115894;27;20063;-74
2022/03/05 02:35:59;;;;;;;27.10;9.60;;;;;;;10.60;37.92;102154.53;5125160;27;20027;-74
2022/03/05 02:38:24;;;;;;;35.03;10.07;;;;;;;11.21;36.47;102153.41;5133734;27;20726;-75
2022/03/05 02:40:51;;;;;;;26.87;9.13;;;;;;;10.55;37.96;102153.63;5134850;27;20023;-75
2022/03/05 02:43:17;;;;;;;28.00;8.90;;;;;;;10.19;38.64;102152.28;5114382;27;20105;-74
2022/03/05 02:45:43;;;;;;;27.53;9.47;;;;;;;10.27;38.65;102158.50;5134216;27;20027;-75
2022/03/05 02:48:11;;;;;;;29.77;9.60;;;;;;;10.77;38.28;102148.63;5114884;27;20080;-75
2022/03/05 02:50:37;;;;;;;29.77;9.93;;;;;;;10.52;37.74;102150.97;5115274;27;20023;-74
2022/03/05 02:53:03;;;;;;;28.13;9.93;;;;;;;10.53;37.66;102152.72;5113048;27;20012;-75
2022/03/05 02:55:29;;;;;;;38.20;11.67;;;;;;;10.63;37.70;102149.38;5114386;27;20027;-74
2022/03/05 02:57:54;;;;;;;29.50;9.30;;;;;;;10.90;37.19;102147.88;5115178;27;20035;-75
2022/03/05 03:00:19;;;;;;;27.90;9.40;;;;;;;10.71;37.72;102157.28;5115142;27;20366;-74
2022/03/05 03:02:45;;;;;;;29.20;9.37;;;;;;;10.77;36.90;102146.00;5114431;27;20397;-75
2022/03/05 03:05:12;;;;;;;28.60;9.17;;;;;;;10.51;37.96;102146.63;5114678;27;20019;-74
2022/03/05 03:07:37;;;;;;;28.07;10.20;;;;;;;10.82;37.52;102144.31;5115572;27;20111;-75
2022/03/05 03:10:05;;;;;;;26.50;9.60;;;;;;;10.80;37.64;102144.31;5114109;27;20072;-75
2022/03/05 03:12:31;;;;;;;26.93;9.97;;;;;;;10.56;37.69;102137.06;5115730;27;20044;-75
2022/03/05 03:14:56;;;;;;;28.50;9.83;;;;;;;10.34;38.04;102136.84;5114999;27;20495;-74
2022/03/05 03:17:22;;;;;;;23.43;9.10;;;;;;;10.58;37.19;102132.75;5114051;27;20090;-75
2022/03/05 03:19:48;;;;;;;29.80;9.03;;;;;;;10.38;37.52;102126.44;5114867;27;20023;-75
2022/03/05 03:22:14;;;;;;;38.00;10.20;;;;;;;10.27;38.25;102134.09;5110746;28;20050;-75
2022/03/05 03:24:40;;;;;;;36.40;10.03;;;;;;;10.77;37.42;102125.97;5111717;28;20035;-75
2022/03/05 03:27:05;;;;;;;29.10;9.20;;;;;;;10.67;37.19;102135.47;5112683;28;20035;-74
2022/03/05 03:29:30;;;;;;;26.20;10.13;;;;;;;10.90;37.18;102136.56;5112129;28;20019;-75
2022/03/05 03:31:56;;;;;;;24.13;9.07;;;;;;;10.97;36.54;102131.38;5110524;28;20038;-75
2022/03/05 03:34:21;;;;;;;39.50;10.37;;;;;;;10.65;36.59;102137.19;5110419;28;20023;-75
2022/03/05 03:36:47;;;;;;;28.77;10.00;;;;;;;10.19;38.04;102129.66;5112846;28;20031;-75
2022/03/05 03:39:12;;;;;;;37.37;10.37;;;;;;;10.37;37.92;102132.50;5110043;28;20493;-74
2022/03/05 03:41:38;;;;;;;33.00;10.53;;;;;;;10.22;37.32;102136.66;5110493;28;20016;-75
2022/03/05 03:44:04;;;;;;;29.70;9.30;;;;;;;10.73;37.19;102129.41;5110108;28;20030;-75
2022/03/05 03:46:29;;;;;;;35.07;9.70;;;;;;;10.86;36.88;102125.19;5110822;28;20058;-75
2022/03/05 03:48:55;;;;;;;27.80;8.70;;;;;;;10.33;37.29;102128.94;5110884;28;20470;-75
2022/03/05 03:51:20;;;;;;;26.17;10.07;;;;;;;10.02;37.90;102129.44;5110872;28;20050;-75
2022/03/05 03:53:46;;;;;;;31.87;10.13;;;;;;;9.98;38.56;102122.41;5110448;28;20372;-75
2022/03/05 03:56:12;;;;;;;29.43;9.37;;;;;;;10.33;38.06;102127.22;5110631;28;20110;-75
2022/03/05 03:58:39;;;;;;;31.93;10.17;;;;;;;9.93;38.69;102133.66;5112053;28;20027;-76
2022/03/05 04:01:05;;;;;;;30.83;10.67;;;;;;;9.58;39.33;102126.22;5110563;28;20023;-75
2022/03/05 04:03:30;;;;;;;37.13;9.70;;;;;;;9.83;38.97;102135.28;5110746;28;20440;-75
2022/03/05 04:05:56;;;;;;;35.93;9.17;;;;;;;9.79;39.00;102136.09;5111538;28;20043;-75
2022/03/05 04:11:05;;;;;;;28.43;8.27;;;;;;;9.87;39.29;102124.00;5112073;28;20038;-75
2022/03/05 04:13:30;;;;;;;30.70;8.80;;;;;;;9.57;39.17;102127.94;5109381;28;20134;-75
2022/03/05 04:15:56;;;;;;;31.00;9.90;;;;;;;9.78;38.86;102119.56;5109911;28;20028;-75
2022/03/05 04:18:21;;;;;;;33.80;8.70;;;;;;;9.58;39.42;102127.09;5110006;28;20126;-75
2022/03/05 04:20:47;;;;;;;31.10;9.53;;;;;;;9.02;40.42;102124.47;5109897;28;20027;-75
2022/03/05 04:23:12;;;;;;;27.13;9.60;;;;;;;9.52;38.82;102121.81;5109673;28;20077;-75
2022/03/05 04:25:39;;;;;;;34.93;9.97;;;;;;;10.01;38.11;102122.47;5110923;28;20019;-74
2022/03/05 04:28:04;;;;;;;34.73;10.40;;;;;;;9.87;38.63;102134.47;5109339;28;20050;-75
2022/03/05 04:30:30;;;;;;;34.53;10.13;;;;;;;9.47;39.89;102123.44;5110496;28;20020;-75
2022/03/05 04:32:55;;;;;;;33.97;10.00;;;;;;;9.56;39.03;102118.38;5110580;28;20519;-75
2022/03/05 04:35:21;;;;;;;30.37;9.43;;;;;;;9.43;39.13;102132.09;5108788;28;20443;-75
2022/03/05 04:37:47;;;;;;;28.83;9.40;;;;;;;9.06;39.75;102126.28;5111872;27;20023;-75
2022/03/05 04:40:12;;;;;;;28.27;10.27;;;;;;;9.59;39.10;102136.69;5109886;28;20559;-75
2022/03/05 04:42:38;;;;;;;33.83;12.47;;;;;;;9.11;39.93;102133.31;5109182;28;20433;-75
2022/03/05 04:45:08;;;;;;;35.40;11.07;;;;;;;9.45;39.30;102126.03;5111350;28;20110;-74
2022/03/05 04:47:34;;;;;;;31.80;9.57;;;;;;;9.27;39.40;102131.84;5109688;28;20019;-75
2022/03/05 04:49:59;;;;;;;30.77;8.70;;;;;;;9.61;38.98;102129.75;5110880;28;20024;-75
2022/03/05 04:52:24;;;;;;;36.47;10.93;;;;;;;9.12;39.66;102131.59;5110899;28;20038;-75
2022/03/05 04:54:50;;;;;;;35.07;9.33;;;;;;;9.38;39.07;102112.88;5109438;28;20027;-75
2022/03/05 04:57:15;;;;;;;30.53;9.10;;;;;;;8.35;41.03;102127.53;5109267;28;20042;-75
2022/03/05 04:59:41;;;;;;;39.00;10.57;;;;;;;8.71;40.52;102130.03;5110067;28;20027;-75
2022/03/05 05:02:06;;;;;;;38.33;9.80;;;;;;;9.05;39.80;102125.38;5107934;28;20023;-75
2022/03/05 05:04:31;;;;;;;26.67;9.37;;;;;;;9.22;39.66;102128.28;5109439;28;20112;-75
2022/03/05 05:06:57;;;;;;;25.23;9.57;;;;;;;9.69;38.42;102129.88;5110710;28;20057;-75
2022/03/05 05:09:22;;;;;;;30.30;9.77;;;;;;;9.85;37.53;102133.59;5108252;28;20066;-75
2022/03/05 05:11:47;;;;;;;40.03;10.30;;;;;;;10.19;37.06;102141.84;5109903;28;20493;-75
2022/03/05 05:14:13;;;;;;;28.53;9.10;;;;;;;9.72;38.48;102139.47;5110224;28;20084;-75
2022/03/05 05:16:38;;;;;;;33.13;10.73;;;;;;;10.13;37.66;102141.78;5110263;28;20042;-75
2022/03/05 05:21:48;;;;;;;33.50;10.03;;;;;;;10.40;37.15;102138.66;5114926;27;20489;-75
2022/03/05 05:24:13;;;;;;;33.50;10.13;;;;;;;9.39;38.17;102141.59;5111863;27;20319;-76
2022/03/05 05:26:39;;;;;;;37.27;10.90;;;;;;;9.22;39.36;102136.13;5131613;27;20106;-75
2022/03/05 05:29:04;;;;;;;33.13;9.57;;;;;;;9.79;37.40;102141.31;5111892;27;20043;-75
2022/03/05 05:31:30;;;;;;;34.60;10.30;;;;;;;9.44;38.50;102144.28;5130717;27;20066;-75
2022/03/05 05:33:56;;;;;;;31.20;9.30;;;;;;;9.44;38.77;102152.13;5112717;27;20088;-75
2022/03/05 05:36:21;;;;;;;31.50;9.30;;;;;;;9.59;37.92;102152.34;5111833;27;20031;-75
2022/03/05 05:38:46;;;;;;;31.70;10.23;;;;;;;8.95;38.89;102160.84;5112211;27;20023;-75
2022/03/05 05:41:12;;;;;;;31.63;9.97;;;;;;;9.68;38.22;102152.50;5112199;27;20122;-75
2022/03/05 05:43:38;;;;;;;32.57;9.77;;;;;;;9.51;38.41;102159.19;5112836;27;20466;-75
2022/03/05 05:46:03;;;;;;;31.03;9.53;;;;;;;8.91;38.94;102164.25;5129628;27;20027;-76
2022/03/05 05:48:29;;;;;;;34.53;11.13;;;;;;;9.58;38.32;102162.78;5112716;27;20466;-75
2022/03/05 05:50:54;;;;;;;31.47;10.13;;;;;;;9.88;37.80;102164.06;5112444;27;20034;-76
2022/03/05 05:53:19;;;;;;;32.90;9.70;;;;;;;9.73;37.18;102156.91;5111115;28;20118;-75
2022/03/05 05:55:45;;;;;;;22.70;8.93;;;;;;;9.63;38.27;102163.69;5112590;28;20031;-75
2022/03/05 05:58:10;;;;;;;33.13;9.93;;;;;;;9.64;37.85;102165.47;5110129;28;20618;-76
2022/03/05 06:00:36;;;;;;;31.90;9.33;;;;;;;9.75;38.02;102173.47;5112609;28;20046;-76
2022/03/05 06:03:01;;;;;;;32.70;9.60;;;;;;;8.87;39.01;102172.88;5110855;28;20019;-75
2022/03/05 06:05:27;;;;;;;33.97;9.57;;;;;;;8.95;38.95;102181.72;5111689;27;20038;-75
2022/03/05 06:07:55;;;;;;;27.70;9.17;;;;;;;9.03;38.83;102175.78;5100910;27;20072;-75
2022/03/05 06:10:21;;;;;;;29.67;9.30;;;;;;;8.58;40.30;102186.22;5114380;27;20026;-75
2022/03/05 06:12:49;;;;;;;34.13;9.33;;;;;;;8.91;39.81;102179.91;5110127;27;20300;-75
2022/03/05 06:15:15;;;;;;;32.00;9.47;;;;;;;8.88;39.24;102190.28;5078728;28;20016;-76
2022/03/05 06:17:41;;;;;;;37.13;10.67;;;;;;;8.95;39.35;102186.94;5106503;27;20284;-77
2022/03/05 06:20:07;;;;;;;33.47;9.80;;;;;;;9.32;38.08;102177.16;5115084;27;20055;-76
2022/03/05 06:22:33;;;;;;;32.87;9.93;;;;;;;8.73;39.47;102179.56;5115699;27;20289;-76
2022/03/05 06:24:58;;;;;;;34.37;9.40;;;;;;;8.38;39.75;102192.75;5095778;28;20609;-75
2022/03/05 06:27:23;;;;;;;28.73;10.30;;;;;;;8.55;40.06;102190.53;5095312;28;20059;-74
2022/03/05 06:29:49;;;;;;;36.37;11.97;;;;;;;8.80;39.56;102186.66;5115106;27;20023;-76
2022/03/05 06:32:14;;;;;;;26.80;9.47;;;;;;;8.75;39.35;102194.41;5134191;27;20390;-75
2022/03/05 06:34:39;;;;;;;31.63;10.90;;;;;;;9.00;38.96;102194.88;5095563;28;20035;-75
2022/03/05 06:37:05;;;;;;;34.73;8.77;;;;;;;8.68;39.39;102195.13;5112822;27;20116;-74
2022/03/05 06:39:30;;;;;;;32.07;9.63;;;;;;;8.81;38.85;102189.28;5115713;27;20038;-75
2022/03/05 06:41:57;;;;;;;27.53;10.13;;;;;;;9.27;38.54;102186.66;5115631;27;20038;-75
2022/03/05 06:44:22;;;;;;;33.23;9.77;;;;;;;9.15;38.85;102194.25;5115167;27;20022;-75
2022/03/05 06:46:48;;;;;;;36.80;10.33;;;;;;;8.81;38.84;102198.84;5134485;27;20276;-75
2022/03/05 06:49:13;;;;;;;38.03;11.73;;;;;;;9.00;38.85;102195.72;5114615;27;20486;-75
2022/03/05 06:51:39;;;;;;;31.47;9.87;;;;;;;8.15;40.54;102196.63;5134371;27;20057;-76
2022/03/05 06:54:04;;;;;;;27.93;9.53;;;;;;;8.82;39.88;102195.41;5114686;27;20042;-76
2022/03/05 06:56:30;;;;;;;35.00;10.20;;;;;;;8.85;39.48;102195.47;5114631;27;20038;-76
2022/03/05 06:58:55;;;;;;;37.10;9.80;;;;;;;8.38;40.16;102203.16;5133521;27;20034;-76
2022/03/05 07:01:21;;;;;;;34.63;9.77;;;;;;;8.36;40.38;102202.25;5114294;27;20023;-76
2022/03/05 07:03:46;;;;;;;37.57;11.03;;;;;;;8.24;40.64;102201.16;5115050;27;20037;-76
2022/03/05 07:06:11;;;;;;;31.70;10.20;;;;;;;9.23;38.85;102197.88;5114182;27;20549;-76
2022/03/05 07:08:37;;;;;;;33.30;10.83;;;;;;;8.44;39.82;102198.97;5114981;27;20497;-75
2022/03/05 07:11:04;;;;;;;37.13;10.13;;;;;;;7.80;41.45;102208.84;5115258;27;20019;-75
2022/03/05 07:13:29;;;;;;;41.57;10.37;;;;;;;8.48;40.24;102210.38;5114876;27;20027;-76
2022/03/05 07:15:55;;;;;;;35.77;11.20;;;;;;;9.32;39.49;102203.25;5113978;27;20265;-77
2022/03/05 07:18:20;;;;;;;33.13;10.87;;;;;;;9.50;39.07;102213.09;5115473;27;20124;-76
2022/03/05 07:20:45;;;;;;;40.37;12.37;;;;;;;9.58;38.19;102207.16;5115245;27;20550;-76
2022/03/05 07:23:11;;;;;;;38.10;10.87;;;;;;;9.95;38.17;102208.59;5113638;27;20043;-76
2022/03/05 07:25:39;;;;;;;36.90;12.27;;;;;;;9.30;38.31;102215.41;5134289;27;20126;-76
2022/03/05 07:28:09;;;;;;;36.03;11.20;;;;;;;8.33;40.25;102222.19;5133243;27;20291;-76
2022/03/05 07:30:35;;;;;;;37.47;10.93;;;;;;;9.36;38.42;102213.75;5115248;27;20443;-76
2022/03/05 07:33:02;;;;;;;34.73;11.40;;;;;;;9.15;39.23;102220.34;5115061;27;20289;-76
2022/03/05 07:35:27;;;;;;;43.37;12.17;;;;;;;9.44;38.18;102222.59;5115349;27;20702;-76
2022/03/05 07:37:52;;;;;;;35.90;11.20;;;;;;;9.45;38.46;102219.09;5114742;27;20315;-76
2022/03/05 07:40:18;;;;;;;37.83;11.13;;;;;;;9.25;39.06;102219.66;5115171;27;20074;-76
2022/03/05 07:42:43;;;;;;;37.93;11.47;;;;;;;10.43;37.63;102214.50;5115574;27;20056;-76
2022/03/05 07:45:09;;;;;;;39.53;12.10;;;;;;;10.19;37.49;102209.78;5132724;27;20072;-76
2022/03/05 07:47:34;;;;;;;42.03;11.97;;;;;;;10.42;37.75;102214.47;5133286;27;20023;-76
2022/03/05 07:50:01;;;;;;;35.77;11.93;;;;;;;10.25;37.19;102217.72;5133856;27;20035;-76
2022/03/05 07:52:26;;;;;;;37.20;11.73;;;;;;;10.37;37.57;102221.38;5113526;27;20048;-76
2022/03/05 07:54:51;;;;;;;41.87;13.03;;;;;;;10.08;37.30;102216.59;5115385;27;20482;-76
2022/03/05 07:57:17;;;;;;;44.73;12.83;;;;;;;10.50;37.24;102226.78;5114159;27;20452;-76
2022/03/05 07:59:43;;;;;;;37.27;12.23;;;;;;;10.28;37.29;102219.50;5114832;27;20057;-76
2022/03/05 08:02:08;;;;;;;40.03;11.53;;;;;;;10.58;36.97;102229.50;5113847;27;20023;-76
2022/03/05 08:04:34;;;;;;;38.13;11.17;;;;;;;10.91;36.44;102235.97;5112856;27;20034;-76
2022/03/05 08:06:59;;;;;;;37.07;10.93;;;;;;;10.52;36.90;102239.84;5132363;27;20030;-76
2022/03/05 08:09:24;;;;;;;43.27;12.30;;;;;;;10.59;36.77;102239.09;5130534;27;20589;-76
2022/03/05 08:11:50;;;;;;;36.20;11.43;;;;;;;10.80;36.93;102246.31;5131821;27;20029;-75
2022/03/05 08:14:15;;;;;;;33.67;11.87;;;;;;;10.13;37.61;102241.94;5132394;27;20108;-75
2022/03/05 08:16:41;;;;;;;46.43;13.30;;;;;;;10.55;37.13;102244.25;5133603;27;20027;-75
2022/03/05 08:19:06;;;;;;;34.20;12.53;;;;;;;10.11;38.24;102237.53;5113073;27;20031;-75
2022/03/05 08:21:32;;;;;;;39.03;12.50;;;;;;;9.66;38.69;102242.97;5132506;27;20034;-75
2022/03/05 08:23:58;;;;;;;39.47;11.67;;;;;;;10.56;37.47;102246.88;5113680;27;20023;-75
2022/03/05 08:26:24;;;;;;;37.93;11.13;;;;;;;9.98;38.58;102246.94;5113388;27;20243;-78
2022/03/05 08:28:49;;;;;;;42.27;12.73;;;;;;;9.84;38.79;102249.34;5113458;27;20390;-75
2022/03/05 08:31:15;;;;;;;40.47;12.47;;;;;;;11.05;37.25;102245.72;5114044;27;20027;-75
2022/03/05 08:33:41;;;;;;;44.73;13.63;;;;;;;10.66;37.52;102258.34;5113424;27;20030;-77
2022/03/05 08:36:07;;;;;;;48.87;14.17;;;;;;;10.78;37.97;102258.47;5114071;27;20072;-77
2022/03/05 08:38:34;;;;;;;43.90;14.07;;;;;;;11.33;36.20;102252.09;5114230;27;20027;-75
2022/03/05 08:41:01;;;;;;;46.43;13.33;;;;;;;11.11;36.65;102259.72;5113249;27;20431;-77
2022/03/05 08:43:27;;;;;;;39.87;12.47;;;;;;;11.53;36.35;102260.13;5113632;27;20511;-77
2022/03/05 08:45:52;;;;;;;41.97;12.97;;;;;;;11.56;36.29;102254.06;5133054;27;20100;-77
2022/03/05 08:48:18;;;;;;;47.87;14.87;;;;;;;10.99;37.36;102257.88;5108180;27;20019;-76
2022/03/05 08:50:44;;;;;;;38.10;12.10;;;;;;;11.54;36.23;102249.66;5107088;27;20140;-75
2022/03/05 08:53:09;;;;;;;41.63;12.10;;;;;;;11.91;35.53;102261.28;5112654;27;20498;-75
2022/03/05 08:55:34;;;;;;;37.63;13.07;;;;;;;11.83;36.16;102245.53;5112999;27;20019;-75
2022/03/05 08:58:00;;;;;;;42.70;13.77;;;;;;;12.58;34.95;102260.84;5113532;27;20031;-75
2022/03/05 09:00:26;;;;;;;45.50;12.97;;;;;;;11.68;36.16;102254.16;5112707;27;20377;-75
2022/03/05 09:02:52;;;;;;;33.00;12.93;;;;;;;12.43;34.99;102255.53;5110755;27;20111;-75
2022/03/05 09:05:18;;;;;;;47.73;14.50;;;;;;;12.27;35.79;102265.03;5113952;27;20105;-75
2022/03/05 09:07:44;;;;;;;48.13;13.40;;;;;;;11.68;36.46;102262.00;5112958;27;20026;-75
2022/03/05 09:10:11;;;;;;;39.30;13.50;;;;;;;11.87;36.21;102256.03;5110641;27;20025;-75
2022/03/05 09:12:37;;;;;;;36.80;13.10;;;;;;;12.10;36.45;102251.84;5110508;27;20058;-75
2022/03/05 09:15:04;;;;;;;36.67;11.97;;;;;;;11.28;37.05;102259.91;5129390;27;20103;-75
2022/03/05 09:17:30;;;;;;;41.90;13.93;;;;;;;10.57;39.02;102264.34;5130476;27;20026;-75
2022/03/05 09:19:55;;;;;;;38.17;12.87;;;;;;;11.78;36.88;102255.09;5111735;27;20488;-75
2022/03/05 09:22:20;;;;;;;53.07;14.17;;;;;;;12.44;35.59;102252.03;5110633;27;20050;-75
2022/03/05 09:24:46;;;;;;;41.87;13.40;;;;;;;12.46;36.38;102251.19;5112627;27;20030;-75
2022/03/05 09:27:11;;;;;;;45.40;15.03;;;;;;;13.38;34.30;102255.84;5128099;27;20099;-74
2022/03/05 09:29:37;;;;;;;37.13;13.83;;;;;;;15.28;31.54;102241.25;5111732;27;20534;-75
2022/03/05 09:32:03;;;;;;;43.77;14.97;;;;;;;15.82;31.34;102248.72;5111792;27;20106;-75
2022/03/05 09:34:29;;;;;;;40.10;13.57;;;;;;;15.80;30.73;102249.63;5112458;27;20019;-75
2022/03/05 09:36:54;;;;;;;35.57;12.87;;;;;;;16.79;29.78;102244.97;5130023;27;20119;-75
2022/03/05 09:39:20;;;;;;;41.07;12.97;;;;;;;18.35;27.15;102244.19;5112192;27;20031;-74
2022/03/05 09:41:46;;;;;;;35.50;12.70;;;;;;;17.36;27.47;102248.56;5129763;27;20390;-74
2022/03/05 09:44:11;;;;;;;34.10;12.53;;;;;;;18.23;26.67;102233.84;5111810;27;20030;-75
2022/03/05 09:46:37;;;;;;;37.57;12.90;;;;;;;18.19;27.34;102242.75;5113283;28;20072;-75
2022/03/05 09:49:04;;;;;;;37.60;13.43;;;;;;;19.63;25.06;102237.75;5131352;27;20019;-75
2022/03/05 09:51:30;;;;;;;36.77;14.13;;;;;;;17.47;26.74;102248.41;5112204;27;20031;-75
2022/03/05 09:53:56;;;;;;;34.60;13.47;;;;;;;20.15;25.08;102241.72;5131051;27;20091;-75
2022/03/05 09:56:22;;;;;;;34.40;13.80;;;;;;;19.85;24.89;102245.19;5110835;27;20027;-75
2022/03/05 09:58:48;;;;;;;37.97;13.93;;;;;;;21.03;22.55;102238.25;5130024;28;20367;-75
2022/03/05 10:01:15;;;;;;;43.37;15.33;;;;;;;19.71;24.29;102240.22;5111445;28;20106;-75
2022/03/05 10:04:17;;;;;;;33.70;13.47;;;;;;;20.35;24.40;102237.63;5112114;28;20641;-75
2022/03/05 10:06:43;;;;;;;36.22;14.20;;;;;;;21.46;22.94;102234.19;5113111;28;20053;-75
2022/03/05 10:09:21;;;;;;;33.90;13.35;;;;;;;20.94;22.81;102231.44;5111681;28;20562;-74
2022/03/05 10:11:46;;;;;;;37.47;15.15;;;;;;;19.86;24.05;102239.00;5109371;28;20023;-75
2022/03/05 10:14:16;;;;;;;35.53;15.38;;;;;;;21.22;22.48;102235.88;5110556;28;20033;-74
2022/03/05 10:16:42;;;;;;;33.03;14.10;;;;;;;19.24;25.26;102240.50;5130760;28;20031;-75
2022/03/05 10:19:20;;;;;;;37.00;15.32;;;;;;;20.90;23.12;102234.25;5129094;28;20120;-74
2022/03/05 10:21:59;;;;;;;33.87;14.57;;;;;;;19.43;24.78;102241.78;5130505;28;20047;-74
2022/03/05 10:24:36;;;;;;;36.80;15.23;;;;;;;18.75;25.71;102247.78;5112183;28;20534;-74
2022/03/05 10:27:02;;;;;;;34.37;15.00;;;;;;;18.16;26.29;102238.38;5111922;28;20030;-74
2022/03/05 10:29:34;;;;;;;38.57;15.03;;;;;;;17.34;27.38;102249.50;5111964;28;20114;-74
2022/03/05 10:32:02;;;;;;;41.70;14.83;;;;;;;17.68;27.80;102239.25;5130563;28;20031;-74
2022/03/05 10:34:29;;;;;;;43.57;15.93;;;;;;;17.57;27.46;102243.84;5129717;28;20024;-74
2022/03/05 10:36:59;;;;;;;38.70;15.70;;;;;;;18.87;25.73;102247.50;5130376;28;20027;-74
2022/03/05 10:39:26;;;;;;;43.77;15.23;;;;;;;18.97;25.36;102227.88;5111349;28;20027;-74
2022/03/05 10:41:55;;;;;;;37.97;15.17;;;;;;;18.70;25.70;102239.94;5111515;28;20034;-75
2022/03/05 10:44:21;;;;;;;39.57;15.90;;;;;;;19.67;23.99;102228.81;5111608;28;20019;-74
2022/03/05 10:46:48;;;;;;;41.77;14.33;;;;;;;19.54;24.50;102230.06;5094948;28;20030;-74
2022/03/05 10:49:17;;;;;;;42.13;15.63;;;;;;;20.48;23.88;102228.38;5111399;28;20027;-74
2022/03/05 10:51:51;;;;;;;42.20;15.93;;;;;;;18.46;26.61;102242.22;5076595;28;20019;-74
2022/03/05 10:54:29;;;;;;;34.93;14.80;;;;;;;20.01;24.00;102233.25;5132724;27;20027;-75
2022/03/05 10:57:16;;;;;;;37.50;14.87;;;;;;;20.38;23.36;102234.88;5134022;27;20482;-74
2022/03/05 10:59:47;;;;;;;41.88;15.32;;;;;;;21.23;22.25;102236.75;5105291;27;20095;-74
2022/03/05 11:02:15;;;;;;;39.45;15.95;;;;;;;20.47;22.88;102233.72;5114011;27;20098;-74
2022/03/05 11:04:45;;;;;;;34.30;15.55;;;;;;;21.71;22.16;102221.84;5116091;27;20027;-74
2022/03/05 11:07:11;;;;;;;39.20;15.80;;;;;;;21.17;22.26;102228.06;5114691;27;20918;-74
2022/03/05 11:09:39;;;;;;;37.50;16.17;;;;;;;20.32;23.01;102227.09;5133346;27;20019;-74
2022/03/05 11:12:09;;;;;;;39.70;15.73;;;;;;;20.43;23.34;102232.06;5114606;27;20027;-73
2022/03/05 11:14:39;;;;;;;41.80;16.77;;;;;;;19.12;24.57;102231.97;5115085;27;20015;-74